ETR2646 SVMG-SVMI
Flight info
| Callsign | ETR2646 |
|---|---|
| Flight time | 0h 42m |
| Altitude | 22000 |
| Route | ESPEP SARNI A561 CBC NETSI1 |
| Aircraft | A319/M-SDE3FGHIRWY/LB1 |
Departure
| Time | 2026-04-21 15:24 |
|---|---|
| Airport | Del Caribe Santiago Mariño International Airport (SVMG) |
Arrival
| Time | 2026-04-21 16:06 |
|---|---|
| Airport | Maiquetía Simón Bolívar International Airport (SVMI) |
| Time | Latitude | Longitude | Altitude | Speed | Heading |
|---|---|---|---|---|---|
| 2026-04-21 15:00 | 10.91599 | -63.96792 | 63 ft | 0 kts | 348° |
| 2026-04-21 15:17 | 10.91600 | -63.96792 | 63 ft | 0 kts | 347° |
| 2026-04-21 15:17 | 10.91606 | -63.96796 | 63 ft | 1 kts | 308° |
| 2026-04-21 15:18 | 10.91603 | -63.96811 | 63 ft | 3 kts | 229° |
| 2026-04-21 15:18 | 10.91574 | -63.96818 | 63 ft | 5 kts | 184° |
| 2026-04-21 15:18 | 10.91533 | -63.96825 | 63 ft | 6 kts | 208° |
| 2026-04-21 15:18 | 10.91505 | -63.96873 | 62 ft | 9 kts | 256° |
| 2026-04-21 15:19 | 10.91489 | -63.96942 | 62 ft | 10 kts | 256° |
| 2026-04-21 15:19 | 10.91447 | -63.97006 | 62 ft | 12 kts | 202° |
| 2026-04-21 15:19 | 10.91366 | -63.97032 | 62 ft | 12 kts | 226° |
| 2026-04-21 15:19 | 10.91341 | -63.97122 | 63 ft | 13 kts | 260° |
| 2026-04-21 15:20 | 10.91324 | -63.97220 | 63 ft | 14 kts | 260° |
| 2026-04-21 15:20 | 10.91304 | -63.97321 | 64 ft | 14 kts | 258° |
| 2026-04-21 15:20 | 10.91283 | -63.97422 | 65 ft | 14 kts | 258° |
| 2026-04-21 15:20 | 10.91262 | -63.97521 | 67 ft | 14 kts | 258° |
| 2026-04-21 15:21 | 10.91241 | -63.97620 | 68 ft | 14 kts | 258° |
| 2026-04-21 15:21 | 10.91221 | -63.97716 | 70 ft | 13 kts | 258° |
| 2026-04-21 15:21 | 10.91201 | -63.97813 | 71 ft | 13 kts | 257° |
| 2026-04-21 15:21 | 10.91179 | -63.97908 | 72 ft | 13 kts | 258° |
| 2026-04-21 15:22 | 10.91158 | -63.98007 | 73 ft | 15 kts | 258° |
| 2026-04-21 15:22 | 10.91124 | -63.98111 | 73 ft | 16 kts | 217° |
| 2026-04-21 15:22 | 10.91015 | -63.98098 | 74 ft | 17 kts | 140° |
| 2026-04-21 15:22 | 10.90986 | -63.97987 | 73 ft | 17 kts | 81° |
| 2026-04-21 15:23 | 10.91046 | -63.97713 | 71 ft | 73 kts | 77° |
| 2026-04-21 15:23 | 10.91198 | -63.96987 | 63 ft | 134 kts | 80° |
| 2026-04-21 15:23 | 10.91407 | -63.95910 | 168 ft | 172 kts | 77° |
| 2026-04-21 15:23 | 10.91672 | -63.94625 | 418 ft | 197 kts | 77° |
| 2026-04-21 15:24 | 10.91968 | -63.93173 | 807 ft | 222 kts | 77° |
| 2026-04-21 15:24 | 10.92271 | -63.91596 | 1439 ft | 236 kts | 83° |
| 2026-04-21 15:24 | 10.92057 | -63.89934 | 2145 ft | 243 kts | 112° |
| 2026-04-21 15:24 | 10.91018 | -63.88560 | 2857 ft | 252 kts | 141° |
| 2026-04-21 15:25 | 10.89411 | -63.87857 | 3563 ft | 262 kts | 170° |
| 2026-04-21 15:25 | 10.87578 | -63.88088 | 4268 ft | 272 kts | 203° |
| 2026-04-21 15:25 | 10.86108 | -63.89285 | 4984 ft | 278 kts | 233° |
| 2026-04-21 15:25 | 10.85049 | -63.90944 | 5717 ft | 283 kts | 237° |
| 2026-04-21 15:26 | 10.83989 | -63.92621 | 6440 ft | 285 kts | 237° |
| 2026-04-21 15:26 | 10.82907 | -63.94325 | 7147 ft | 287 kts | 237° |
| 2026-04-21 15:26 | 10.81824 | -63.96031 | 7857 ft | 289 kts | 237° |
| 2026-04-21 15:26 | 10.80735 | -63.97750 | 8568 ft | 291 kts | 237° |
| 2026-04-21 15:27 | 10.79638 | -63.99477 | 9285 ft | 291 kts | 237° |
| 2026-04-21 15:27 | 10.78527 | -64.01220 | 9995 ft | 300 kts | 237° |
| 2026-04-21 15:27 | 10.77350 | -64.03043 | 10703 ft | 320 kts | 237° |
| 2026-04-21 15:27 | 10.76349 | -64.05127 | 11401 ft | 340 kts | 256° |
| 2026-04-21 15:28 | 10.76028 | -64.07561 | 12130 ft | 357 kts | 268° |
| 2026-04-21 15:28 | 10.75966 | -64.10150 | 12861 ft | 376 kts | 270° |
| 2026-04-21 15:28 | 10.75923 | -64.12825 | 13585 ft | 392 kts | 269° |
| 2026-04-21 15:28 | 10.75846 | -64.15649 | 14304 ft | 408 kts | 269° |
| 2026-04-21 15:29 | 10.75741 | -64.18582 | 14987 ft | 422 kts | 268° |
| 2026-04-21 15:29 | 10.75613 | -64.21587 | 15687 ft | 431 kts | 268° |
| 2026-04-21 15:29 | 10.75470 | -64.24649 | 16380 ft | 437 kts | 268° |
| 2026-04-21 15:29 | 10.75321 | -64.27758 | 17065 ft | 443 kts | 268° |
| 2026-04-21 15:30 | 10.75166 | -64.30907 | 17771 ft | 448 kts | 268° |
| 2026-04-21 15:30 | 10.75008 | -64.34094 | 18497 ft | 453 kts | 268° |
| 2026-04-21 15:30 | 10.74846 | -64.37320 | 19224 ft | 457 kts | 268° |
| 2026-04-21 15:30 | 10.74684 | -64.40545 | 19938 ft | 461 kts | 268° |
| 2026-04-21 15:31 | 10.74519 | -64.43819 | 20513 ft | 468 kts | 268° |
| 2026-04-21 15:31 | 10.74353 | -64.47095 | 20966 ft | 459 kts | 268° |
| 2026-04-21 15:31 | 10.74189 | -64.50345 | 21233 ft | 459 kts | 268° |
| 2026-04-21 15:31 | 10.74026 | -64.53561 | 21453 ft | 459 kts | 268° |
| 2026-04-21 15:32 | 10.73861 | -64.56818 | 21613 ft | 460 kts | 268° |
| 2026-04-21 15:32 | 10.73690 | -64.60079 | 21740 ft | 461 kts | 267° |
| 2026-04-21 15:32 | 10.73416 | -64.63302 | 21867 ft | 462 kts | 265° |
| 2026-04-21 15:32 | 10.73062 | -64.66575 | 21937 ft | 462 kts | 264° |
| 2026-04-21 15:33 | 10.72701 | -64.69823 | 21946 ft | 462 kts | 264° |
| 2026-04-21 15:33 | 10.72342 | -64.73037 | 21957 ft | 462 kts | 264° |
| 2026-04-21 15:33 | 10.71976 | -64.76305 | 21948 ft | 462 kts | 264° |
| 2026-04-21 15:33 | 10.71611 | -64.79564 | 21954 ft | 462 kts | 264° |
| 2026-04-21 15:34 | 10.71253 | -64.82769 | 21951 ft | 462 kts | 264° |
| 2026-04-21 15:34 | 10.70888 | -64.86032 | 21954 ft | 462 kts | 264° |
| 2026-04-21 15:34 | 10.70525 | -64.89280 | 21951 ft | 462 kts | 264° |
| 2026-04-21 15:34 | 10.70164 | -64.92499 | 21948 ft | 463 kts | 264° |
| 2026-04-21 15:35 | 10.69798 | -64.95768 | 21952 ft | 463 kts | 264° |
| 2026-04-21 15:35 | 10.69439 | -64.98979 | 21955 ft | 463 kts | 264° |
| 2026-04-21 15:35 | 10.69070 | -65.02256 | 21955 ft | 463 kts | 264° |
| 2026-04-21 15:35 | 10.68706 | -65.05491 | 21950 ft | 463 kts | 264° |
| 2026-04-21 15:36 | 10.68341 | -65.08741 | 21950 ft | 463 kts | 264° |
| 2026-04-21 15:36 | 10.67977 | -65.11975 | 21949 ft | 463 kts | 264° |
| 2026-04-21 15:36 | 10.67611 | -65.15211 | 21953 ft | 463 kts | 264° |
| 2026-04-21 15:36 | 10.67244 | -65.18465 | 21950 ft | 463 kts | 264° |
| 2026-04-21 15:37 | 10.66876 | -65.21721 | 21953 ft | 462 kts | 264° |
| 2026-04-21 15:37 | 10.66512 | -65.24952 | 21947 ft | 463 kts | 264° |
| 2026-04-21 15:37 | 10.66145 | -65.28204 | 21952 ft | 463 kts | 264° |
| 2026-04-21 15:37 | 10.65778 | -65.31452 | 21954 ft | 463 kts | 264° |
| 2026-04-21 15:38 | 10.65412 | -65.34675 | 21953 ft | 463 kts | 264° |
| 2026-04-21 15:38 | 10.65045 | -65.37916 | 21957 ft | 463 kts | 264° |
| 2026-04-21 15:38 | 10.64678 | -65.41159 | 21957 ft | 463 kts | 264° |
| 2026-04-21 15:38 | 10.64307 | -65.44422 | 21951 ft | 463 kts | 264° |
| 2026-04-21 15:39 | 10.63941 | -65.47643 | 21959 ft | 463 kts | 264° |
| 2026-04-21 15:39 | 10.63569 | -65.50908 | 21964 ft | 463 kts | 264° |
| 2026-04-21 15:39 | 10.63198 | -65.54166 | 21957 ft | 463 kts | 264° |
| 2026-04-21 15:39 | 10.62831 | -65.57374 | 21966 ft | 462 kts | 264° |
| 2026-04-21 15:40 | 10.62461 | -65.60620 | 21965 ft | 462 kts | 264° |
| 2026-04-21 15:40 | 10.62087 | -65.63891 | 21959 ft | 462 kts | 264° |
| 2026-04-21 15:40 | 10.61716 | -65.67137 | 21963 ft | 463 kts | 264° |
| 2026-04-21 15:40 | 10.61346 | -65.70390 | 21963 ft | 463 kts | 264° |
| 2026-04-21 15:41 | 10.60975 | -65.73634 | 21959 ft | 464 kts | 264° |
| 2026-04-21 15:41 | 10.60602 | -65.76897 | 21959 ft | 464 kts | 264° |
| 2026-04-21 15:41 | 10.60233 | -65.80116 | 21960 ft | 464 kts | 264° |
| 2026-04-21 15:41 | 10.59860 | -65.83361 | 21958 ft | 463 kts | 264° |
| 2026-04-21 15:42 | 10.59484 | -65.86626 | 21949 ft | 464 kts | 264° |
| 2026-04-21 15:42 | 10.59113 | -65.89859 | 21692 ft | 462 kts | 264° |
| 2026-04-21 15:42 | 10.58736 | -65.93130 | 21401 ft | 459 kts | 264° |
| 2026-04-21 15:42 | 10.58369 | -65.96310 | 21121 ft | 457 kts | 264° |
| 2026-04-21 15:43 | 10.57999 | -65.99509 | 20803 ft | 455 kts | 264° |
| 2026-04-21 15:43 | 10.57863 | -66.02699 | 20460 ft | 451 kts | 275° |
| 2026-04-21 15:43 | 10.58500 | -66.05794 | 20142 ft | 447 kts | 290° |
| 2026-04-21 15:43 | 10.59892 | -66.08625 | 19801 ft | 444 kts | 304° |
| 2026-04-21 15:44 | 10.61675 | -66.11177 | 19509 ft | 443 kts | 307° |
| 2026-04-21 15:44 | 10.63522 | -66.13715 | 19158 ft | 441 kts | 307° |
| 2026-04-21 15:44 | 10.65344 | -66.16220 | 18894 ft | 440 kts | 307° |
| 2026-04-21 15:44 | 10.67151 | -66.18730 | 18677 ft | 439 kts | 307° |
| 2026-04-21 15:45 | 10.68949 | -66.21248 | 18441 ft | 437 kts | 307° |
| 2026-04-21 15:45 | 10.70136 | -66.22916 | 18289 ft | 436 kts | 307° |
| 2026-04-21 15:45 | 10.72482 | -66.26213 | 17967 ft | 435 kts | 307° |
| 2026-04-21 15:45 | 10.74265 | -66.28719 | 17580 ft | 432 kts | 306° |
| 2026-04-21 15:46 | 10.76003 | -66.31162 | 17166 ft | 430 kts | 306° |
| 2026-04-21 15:46 | 10.77776 | -66.33656 | 16734 ft | 427 kts | 306° |
| 2026-04-21 15:46 | 10.79481 | -66.36140 | 16388 ft | 425 kts | 301° |
| 2026-04-21 15:46 | 10.80631 | -66.38882 | 16012 ft | 423 kts | 285° |
| 2026-04-21 15:47 | 10.81016 | -66.41828 | 15637 ft | 422 kts | 270° |
| 2026-04-21 15:47 | 10.80694 | -66.44802 | 15224 ft | 419 kts | 261° |
| 2026-04-21 15:47 | 10.80178 | -66.47692 | 14859 ft | 416 kts | 259° |
| 2026-04-21 15:47 | 10.79639 | -66.50599 | 14491 ft | 413 kts | 260° |
| 2026-04-21 15:48 | 10.79119 | -66.53442 | 14147 ft | 410 kts | 260° |
| 2026-04-21 15:48 | 10.78611 | -66.56288 | 13766 ft | 407 kts | 260° |
| 2026-04-21 15:48 | 10.78278 | -66.58179 | 13520 ft | 405 kts | 260° |
| 2026-04-21 15:48 | 10.77626 | -66.61907 | 13020 ft | 401 kts | 260° |
| 2026-04-21 15:49 | 10.77140 | -66.64705 | 12596 ft | 399 kts | 261° |
| 2026-04-21 15:49 | 10.76663 | -66.67467 | 12228 ft | 398 kts | 260° |
| 2026-04-21 15:49 | 10.76189 | -66.70220 | 11842 ft | 396 kts | 260° |
| 2026-04-21 15:49 | 10.75714 | -66.72973 | 11467 ft | 394 kts | 260° |
| 2026-04-21 15:50 | 10.75242 | -66.75698 | 11073 ft | 392 kts | 260° |
| 2026-04-21 15:50 | 10.74766 | -66.78442 | 10710 ft | 390 kts | 260° |
| 2026-04-21 15:50 | 10.74297 | -66.81140 | 10311 ft | 388 kts | 260° |
| 2026-04-21 15:50 | 10.73830 | -66.83829 | 9926 ft | 381 kts | 261° |
| 2026-04-21 15:51 | 10.73375 | -66.86446 | 9586 ft | 375 kts | 260° |
| 2026-04-21 15:51 | 10.72965 | -66.89059 | 9231 ft | 367 kts | 263° |
| 2026-04-21 15:51 | 10.72806 | -66.90755 | 9038 ft | 361 kts | 266° |
| 2026-04-21 15:51 | 10.72725 | -66.94083 | 8652 ft | 351 kts | 270° |
| 2026-04-21 15:52 | 10.72724 | -66.96554 | 8394 ft | 344 kts | 270° |
| 2026-04-21 15:52 | 10.72726 | -66.98974 | 8088 ft | 338 kts | 270° |
| 2026-04-21 15:52 | 10.72726 | -67.00549 | 7905 ft | 334 kts | 270° |
| 2026-04-21 15:52 | 10.72725 | -67.03648 | 7537 ft | 327 kts | 270° |
| 2026-04-21 15:53 | 10.72722 | -67.05950 | 7250 ft | 322 kts | 270° |
| 2026-04-21 15:53 | 10.72718 | -67.08237 | 6963 ft | 317 kts | 270° |
| 2026-04-21 15:53 | 10.72714 | -67.10459 | 6664 ft | 313 kts | 270° |
| 2026-04-21 15:53 | 10.72709 | -67.12645 | 6406 ft | 307 kts | 270° |
| 2026-04-21 15:54 | 10.72704 | -67.14799 | 6139 ft | 302 kts | 270° |
| 2026-04-21 15:54 | 10.72698 | -67.16891 | 5911 ft | 297 kts | 270° |
| 2026-04-21 15:54 | 10.72693 | -67.18987 | 5694 ft | 292 kts | 270° |
| 2026-04-21 15:54 | 10.72689 | -67.21045 | 5445 ft | 288 kts | 271° |
| 2026-04-21 15:55 | 10.72697 | -67.23042 | 5247 ft | 282 kts | 271° |
| 2026-04-21 15:55 | 10.72710 | -67.25017 | 5087 ft | 276 kts | 271° |
| 2026-04-21 15:55 | 10.72723 | -67.26968 | 4894 ft | 269 kts | 271° |
| 2026-04-21 15:55 | 10.72723 | -67.28833 | 4732 ft | 263 kts | 267° |
| 2026-04-21 15:56 | 10.72493 | -67.30048 | 4602 ft | 260 kts | 248° |
| 2026-04-21 15:56 | 10.71256 | -67.32090 | 4388 ft | 252 kts | 233° |
| 2026-04-21 15:56 | 10.70568 | -67.33066 | 4273 ft | 248 kts | 235° |
| 2026-04-21 15:56 | 10.69328 | -67.35008 | 4043 ft | 242 kts | 237° |
| 2026-04-21 15:57 | 10.68189 | -67.36215 | 3854 ft | 235 kts | 208° |
| 2026-04-21 15:57 | 10.66680 | -67.36664 | 3685 ft | 225 kts | 177° |
| 2026-04-21 15:57 | 10.65183 | -67.36320 | 3514 ft | 214 kts | 148° |
| 2026-04-21 15:57 | 10.64078 | -67.35377 | 3346 ft | 203 kts | 122° |
| 2026-04-21 15:58 | 10.63613 | -67.34563 | 3252 ft | 199 kts | 113° |
| 2026-04-21 15:58 | 10.62845 | -67.32873 | 3034 ft | 195 kts | 111° |
| 2026-04-21 15:58 | 10.62286 | -67.31641 | 2986 ft | 188 kts | 112° |
| 2026-04-21 15:58 | 10.61717 | -67.30438 | 2983 ft | 189 kts | 112° |
| 2026-04-21 15:59 | 10.61327 | -67.29627 | 2991 ft | 191 kts | 113° |
| 2026-04-21 15:59 | 10.60735 | -67.28407 | 2992 ft | 193 kts | 113° |
| 2026-04-21 15:59 | 10.60067 | -67.26726 | 2984 ft | 193 kts | 105° |
| 2026-04-21 15:59 | 10.59764 | -67.25397 | 2989 ft | 191 kts | 95° |
| 2026-04-21 16:00 | 10.59668 | -67.24066 | 2997 ft | 190 kts | 89° |
| 2026-04-21 16:00 | 10.59683 | -67.22714 | 2999 ft | 188 kts | 86° |
| 2026-04-21 16:00 | 10.59726 | -67.21433 | 3064 ft | 180 kts | 86° |
| 2026-04-21 16:00 | 10.59772 | -67.20168 | 3019 ft | 175 kts | 86° |
| 2026-04-21 16:01 | 10.59813 | -67.18963 | 2993 ft | 164 kts | 86° |
| 2026-04-21 16:01 | 10.59849 | -67.17857 | 2976 ft | 150 kts | 86° |
| 2026-04-21 16:01 | 10.59883 | -67.16802 | 2992 ft | 147 kts | 86° |
| 2026-04-21 16:01 | 10.59918 | -67.15749 | 2924 ft | 153 kts | 86° |
| 2026-04-21 16:02 | 10.59952 | -67.14678 | 2738 ft | 154 kts | 86° |
| 2026-04-21 16:02 | 10.59985 | -67.13604 | 2537 ft | 150 kts | 86° |
| 2026-04-21 16:02 | 10.60007 | -67.12892 | 2405 ft | 147 kts | 85° |
| 2026-04-21 16:02 | 10.60049 | -67.11537 | 2153 ft | 141 kts | 86° |
| 2026-04-21 16:03 | 10.60080 | -67.10548 | 1986 ft | 141 kts | 85° |
| 2026-04-21 16:03 | 10.60112 | -67.09553 | 1813 ft | 142 kts | 86° |
| 2026-04-21 16:03 | 10.60144 | -67.08544 | 1645 ft | 143 kts | 86° |
| 2026-04-21 16:03 | 10.60175 | -67.07530 | 1464 ft | 144 kts | 85° |
| 2026-04-21 16:04 | 10.60208 | -67.06508 | 1283 ft | 144 kts | 85° |
| 2026-04-21 16:04 | 10.60240 | -67.05499 | 1096 ft | 143 kts | 85° |
| 2026-04-21 16:04 | 10.60261 | -67.04819 | 971 ft | 142 kts | 85° |
| 2026-04-21 16:04 | 10.60303 | -67.03504 | 734 ft | 138 kts | 85° |
| 2026-04-21 16:05 | 10.60333 | -67.02533 | 565 ft | 138 kts | 84° |
| 2026-04-21 16:05 | 10.60363 | -67.01553 | 420 ft | 137 kts | 85° |
| 2026-04-21 16:05 | 10.60382 | -67.00906 | 350 ft | 134 kts | 84° |
| 2026-04-21 16:05 | 10.60438 | -66.99769 | 323 ft | 99 kts | 88° |
| 2026-04-21 16:06 | 10.60447 | -66.99352 | 324 ft | 77 kts | 91° |
| 2026-04-21 16:06 | 10.60448 | -66.98949 | 324 ft | 28 kts | 90° |
| 2026-04-21 16:06 | 10.60439 | -66.98693 | 324 ft | 22 kts | 142° |
| 2026-04-21 16:06 | 10.60357 | -66.98749 | 324 ft | 16 kts | 248° |
| 2026-04-21 16:07 | 10.60304 | -66.98856 | 325 ft | 17 kts | 244° |
| 2026-04-21 16:07 | 10.60282 | -66.98974 | 324 ft | 17 kts | 269° |
| 2026-04-21 16:07 | 10.60281 | -66.99099 | 324 ft | 17 kts | 269° |
| 2026-04-21 16:07 | 10.60278 | -66.99225 | 324 ft | 17 kts | 268° |
| 2026-04-21 16:08 | 10.60266 | -66.99479 | 324 ft | 18 kts | 268° |
| 2026-04-21 16:08 | 10.60262 | -66.99607 | 324 ft | 18 kts | 268° |
| 2026-04-21 16:08 | 10.60259 | -66.99738 | 324 ft | 18 kts | 268° |
| 2026-04-21 16:09 | 10.60256 | -66.99827 | 324 ft | 18 kts | 268° |
| 2026-04-21 16:09 | 10.60153 | -66.99927 | 324 ft | 18 kts | 182° |
| 2026-04-21 16:09 | 10.60068 | -66.99928 | 325 ft | 18 kts | 180° |
| 2026-04-21 16:09 | 10.59917 | -66.99972 | 326 ft | 18 kts | 246° |
| 2026-04-21 16:10 | 10.59906 | -67.00092 | 326 ft | 14 kts | 267° |
| 2026-04-21 16:10 | 10.59897 | -67.00181 | 326 ft | 8 kts | 238° |
| 2026-04-21 16:10 | 10.59862 | -67.00195 | 326 ft | 8 kts | 181° |
| 2026-04-21 16:10 | 10.59826 | -67.00194 | 326 ft | 0 kts | 179° |